地図

経路データ

SID SEASON NUMBER BASIN SUBBASIN NAME ISO_TIME NATURE LAT LON WMO_WIND WMO_PRES WMO_AGENCY TRACK_TYPE DIST2LAND LANDFALL IFLAG USA_AGENCY USA_ATCF_ID USA_LAT USA_LON USA_RECORD USA_STATUS USA_WIND USA_PRES USA_SSHS USA_R34_NE USA_R34_SE USA_R34_SW USA_R34_NW USA_R50_NE USA_R50_SE USA_R50_SW USA_R50_NW USA_R64_NE USA_R64_SE USA_R64_SW USA_R64_NW USA_POCI USA_ROCI USA_RMW USA_EYE TOKYO_LAT TOKYO_LON TOKYO_GRADE TOKYO_WIND TOKYO_PRES TOKYO_R50_DIR TOKYO_R50_LONG TOKYO_R50_SHORT TOKYO_R30_DIR TOKYO_R30_LONG TOKYO_R30_SHORT TOKYO_LAND CMA_LAT CMA_LON CMA_CAT CMA_WIND CMA_PRES HKO_LAT HKO_LON HKO_CAT HKO_WIND HKO_PRES NEWDELHI_LAT NEWDELHI_LON NEWDELHI_GRADE NEWDELHI_WIND NEWDELHI_PRES NEWDELHI_CI NEWDELHI_DP NEWDELHI_POCI REUNION_LAT REUNION_LON REUNION_TYPE REUNION_WIND REUNION_PRES REUNION_TNUM REUNION_CI REUNION_RMW REUNION_R34_NE REUNION_R34_SE REUNION_R34_SW REUNION_R34_NW REUNION_R50_NE REUNION_R50_SE REUNION_R50_SW REUNION_R50_NW REUNION_R64_NE REUNION_R64_SE REUNION_R64_SW REUNION_R64_NW BOM_LAT BOM_LON BOM_TYPE BOM_WIND BOM_PRES BOM_TNUM BOM_CI BOM_RMW BOM_R34_NE BOM_R34_SE BOM_R34_SW BOM_R34_NW BOM_R50_NE BOM_R50_SE BOM_R50_SW BOM_R50_NW BOM_R64_NE BOM_R64_SE BOM_R64_SW BOM_R64_NW BOM_ROCI BOM_POCI BOM_EYE BOM_POS_METHOD BOM_PRES_METHOD NADI_LAT NADI_LON NADI_CAT NADI_WIND NADI_PRES WELLINGTON_LAT WELLINGTON_LON WELLINGTON_WIND WELLINGTON_PRES DS824_LAT DS824_LON DS824_STAGE DS824_WIND DS824_PRES TD9636_LAT TD9636_LON TD9636_STAGE TD9636_WIND TD9636_PRES TD9635_LAT TD9635_LON TD9635_WIND TD9635_PRES TD9635_ROCI NEUMANN_LAT NEUMANN_LON NEUMANN_CLASS NEUMANN_WIND NEUMANN_PRES MLC_LAT MLC_LON MLC_CLASS MLC_WIND MLC_PRES USA_GUST BOM_GUST BOM_GUST_PER REUNION_GUST REUNION_GUST_PER USA_SEAHGT USA_SEARAD_NE USA_SEARAD_SE USA_SEARAD_SW USA_SEARAD_NW STORM_SPEED STORM_DIR
1921199N14128 1921 30 WP MM NOT_NAMED 1921-07-17 22:00:00 NR 13.5000 127.700 main 279 279 __________O___ -1 13.5000 127.700 4 8 343
1921199N14128 1921 30 WP MM NOT_NAMED 1921-07-18 00:00:00 NR 13.7479 127.619 main 282 289 __________P___ -1 13.7479 127.619 4 8 342
1921199N14128 1921 30 WP MM NOT_NAMED 1921-07-18 03:00:00 NR 14.1205 127.496 main 303 303 __________P___ -1 14.1205 127.496 4 8 342
1921199N14128 1921 30 WP MM NOT_NAMED 1921-07-18 06:00:00 NR 14.4951 127.372 main 326 321 __________P___ -1 14.4951 127.372 4 8 342
1921199N14128 1921 30 WP MM NOT_NAMED 1921-07-18 09:00:00 NR 14.8731 127.244 main 321 321 __________P___ -1 14.8731 127.244 4 8 342
1921199N14128 1921 30 WP MM NOT_NAMED 1921-07-18 10:00:00 NR 15.0000 127.200 main 325 320 __________O___ -1 15.0000 127.200 4 8 342
1921199N14128 1921 30 WP MM NOT_NAMED 1921-07-18 12:00:00 NR 15.2552 127.111 main 330 326 __________P___ -1 15.2552 127.111 4 8 342
1921199N14128 1921 30 WP MM NOT_NAMED 1921-07-18 15:00:00 NR 15.6382 126.978 main 338 335 __________P___ -1 15.6382 126.978 4 8 342
1921199N14128 1921 30 WP MM NOT_NAMED 1921-07-18 18:00:00 NR 16.0158 126.851 main 357 348 __________P___ -1 16.0158 126.851 4 8 343
1921199N14128 1921 30 WP MM NOT_NAMED 1921-07-18 21:00:00 NR 16.3817 126.735 main 372 372 __________P___ -1 16.3817 126.735 4 8 343
1921199N14128 1921 30 WP MM NOT_NAMED 1921-07-18 22:00:00 NR 16.5000 126.700 main 380 380 __________O___ -1 16.5000 126.700 4 7 346
1921199N14128 1921 30 WP MM NOT_NAMED 1921-07-19 00:00:00 NR 16.7254 126.644 main 390 390 __________P___ -1 16.7254 126.644 4 7 347
1921199N14128 1921 30 WP MM NOT_NAMED 1921-07-19 03:00:00 NR 17.0509 126.572 main 425 425 __________P___ -1 17.0509 126.572 4 7 349
1921199N14128 1921 30 WP MM NOT_NAMED 1921-07-19 06:00:00 NR 17.3695 126.505 main 427 419 __________P___ -1 17.3695 126.505 4 7 348
1921199N14128 1921 30 WP MM NOT_NAMED 1921-07-19 09:00:00 NR 17.6907 126.429 main 421 421 __________P___ -1 17.6907 126.429 4 7 348
1921199N14128 1921 30 WP MM NOT_NAMED 1921-07-19 10:00:00 NR 17.8000 126.400 main 423 418 __________O___ -1 17.8000 126.400 4 7 345
1921199N14128 1921 30 WP MM NOT_NAMED 1921-07-19 12:00:00 NR 18.0381 126.326 main 418 411 __________P___ -1 18.0381 126.326 4 8 343
1921199N14128 1921 30 WP MM NOT_NAMED 1921-07-19 15:00:00 NR 18.4019 126.201 main 411 401 __________P___ -1 18.4019 126.201 4 8 341
1921199N14128 1921 30 WP MM NOT_NAMED 1921-07-19 18:00:00 NR 18.7595 126.070 main 402 387 __________P___ -1 18.7595 126.070 4 7 340
1921199N14128 1921 30 WP MM NOT_NAMED 1921-07-19 21:00:00 NR 19.0955 125.941 main 387 387 __________P___ -1 19.0955 125.941 4 7 340
1921199N14128 1921 30 WP MM NOT_NAMED 1921-07-19 22:00:00 NR 19.2000 125.900 main 389 381 __________O___ -1 19.2000 125.900 4 6 339
1921199N14128 1921 30 WP MM NOT_NAMED 1921-07-20 00:00:00 NR 19.3895 125.822 main 384 381 __________P___ -1 19.3895 125.822 4 6 338
1921199N14128 1921 30 WP MM NOT_NAMED 1921-07-20 03:00:00 NR 19.6485 125.712 main 381 380 __________P___ -1 19.6485 125.712 4 5 338
1921199N14128 1921 30 WP MM NOT_NAMED 1921-07-20 06:00:00 NR 19.8884 125.612 main 385 385 __________P___ -1 19.8884 125.612 4 5 339
1921199N14128 1921 30 WP MM NOT_NAMED 1921-07-20 09:00:00 NR 20.1216 125.525 main 386 386 __________P___ -1 20.1216 125.525 4 5 341
1921199N14128 1921 30 WP MM NOT_NAMED 1921-07-20 10:00:00 NR 20.2000 125.500 main 391 391 __________O___ -1 20.2000 125.500 4 5 344
1921199N14128 1921 30 WP MM NOT_NAMED 1921-07-20 12:00:00 NR 20.3771 125.453 main 403 394 __________P___ -1 20.3771 125.453 4 5 348
1921199N14128 1921 30 WP MM NOT_NAMED 1921-07-20 15:00:00 NR 20.6431 125.394 main 407 414 __________P___ -1 20.6431 125.394 4 5 350
1921199N14128 1921 30 WP MM NOT_NAMED 1921-07-20 18:00:00 NR 20.8982 125.348 main 420 420 __________P___ -1 20.8982 125.348 4 5 351
1921199N14128 1921 30 WP MM NOT_NAMED 1921-07-20 21:00:00 NR 21.1301 125.311 main 435 435 __________P___ -1 21.1301 125.311 4 5 353
1921199N14128 1921 30 WP MM NOT_NAMED 1921-07-20 22:00:00 NR 21.2000 125.300 main 443 443 __________O___ -1 21.2000 125.300 4 4 351
1921199N14128 1921 30 WP MM NOT_NAMED 1921-07-21 00:00:00 NR 21.3176 125.278 main 448 439 __________P___ -1 21.3176 125.278 4 3 352
1921199N14128 1921 30 WP MM NOT_NAMED 1921-07-21 03:00:00 NR 21.4686 125.250 main 439 425 __________P___ -1 21.4686 125.250 4 3 353
1921199N14128 1921 30 WP MM NOT_NAMED 1921-07-21 06:00:00 NR 21.6059 125.228 main 425 420 __________P___ -1 21.6059 125.228 4 3 352
1921199N14128 1921 30 WP MM NOT_NAMED 1921-07-21 09:00:00 NR 21.7482 125.207 main 420 416 __________P___ -1 21.7482 125.207 4 3 0
1921199N14128 1921 30 WP MM NOT_NAMED 1921-07-21 10:00:00 NR 21.8000 125.200 main 416 412 __________O___ -1 21.8000 125.200 4 3 0
1921199N14128 1921 30 WP MM NOT_NAMED 1921-07-21 12:00:00 NR 21.9130 125.185 main 412 405 __________P___ -1 21.9130 125.185 4 4 355
1921199N14128 1921 30 WP MM NOT_NAMED 1921-07-21 15:00:00 NR 22.1026 125.161 main 405 389 __________P___ -1 22.1026 125.161 4 4 353
1921199N14128 1921 30 WP MM NOT_NAMED 1921-07-21 18:00:00 NR 22.3096 125.135 main 389 384 __________P___ -1 22.3096 125.135 4 4 354
1921199N14128 1921 30 WP MM NOT_NAMED 1921-07-21 21:00:00 NR 22.5267 125.109 main 384 383 __________P___ -1 22.5267 125.109 4 4 352
1921199N14128 1921 30 WP MM NOT_NAMED 1921-07-21 22:00:00 NR 22.6000 125.100 main 383 __________O___ -1 22.6000 125.100 7 4 0

デジタル台風データ・検索

IBTrACS Databaseについて

本データベースは、米国NOAAが公開する1842年以降の世界の熱帯低気圧のベストトラックデータアーカイブInternational Best Track Archive for Climate Stewardship (IBTrACS)を、ウェブで閲覧しやすい形式に変換したものです。

最終更新日:2021-11-26